Time;durP1;ratioP1;P1;durP2;ratioP2;P2;SDS_P1;SDS_P2;PMS_P1;PMS_P2;Temp;Humidity;BMP_temperature;BMP_pressure;BME280_temperature;BME280_humidity;BME280_pressure;Samples;Min_cycle;Max_cycle;Signal;HPM_P1;HPM_P2
2023/02/15 00:01:28;;;;;;;;;67.67;57.00;;;;;;;;5044122;28;9605;-78
2023/02/15 00:03:55;;;;;;;;;72.67;57.67;;;;;;;;5048171;28;8840;-78
2023/02/15 00:06:24;;;;;;;;;77.67;60.00;;;;;;;;5042745;28;8860;-79
2023/02/15 00:08:51;;;;;;;;;73.67;59.00;;;;;;;;5042371;28;8838;-79
2023/02/15 00:11:39;;;;;;;;;84.67;64.33;;;;;;;;5043625;28;8944;-79
2023/02/15 00:14:07;;;;;;;;;76.33;60.00;;;;;;;;5046566;28;8854;-78
2023/02/15 00:16:34;;;;;;;;;74.00;57.67;;;;;;;;5042399;28;8893;-78
2023/02/15 00:19:01;;;;;;;;;76.67;60.67;;;;;;;;5042927;28;8858;-79
2023/02/15 00:21:30;;;;;;;;;78.67;62.00;;;;;;;;5046317;28;8858;-78
2023/02/15 00:23:58;;;;;;;;;75.33;61.00;;;;;;;;5042738;28;9000;-79
2023/02/15 00:26:26;;;;;;;;;78.00;62.00;;;;;;;;5044680;28;8843;-78
2023/02/15 00:28:53;;;;;;;;;87.00;65.33;;;;;;;;5043933;28;8851;-78
2023/02/15 00:31:21;;;;;;;;;76.33;61.00;;;;;;;;5045127;28;8814;-78
2023/02/15 00:33:48;;;;;;;;;82.33;65.00;;;;;;;;5043662;28;8832;-77
2023/02/15 00:36:16;;;;;;;;;77.00;60.00;;;;;;;;5042257;28;8862;-78
2023/02/15 00:38:44;;;;;;;;;81.67;63.33;;;;;;;;5045707;28;8850;-79
2023/02/15 00:41:12;;;;;;;;;91.67;68.33;;;;;;;;5037979;28;8865;-78
2023/02/15 00:43:39;;;;;;;;;84.33;64.33;;;;;;;;5039611;28;8921;-78
2023/02/15 00:46:07;;;;;;;;;82.67;66.00;;;;;;;;5041466;28;8867;-77
2023/02/15 00:48:34;;;;;;;;;81.33;64.33;;;;;;;;5043533;28;8863;-78
2023/02/15 00:51:02;;;;;;;;;85.67;67.67;;;;;;;;5045592;28;8874;-78
2023/02/15 00:53:30;;;;;;;;;84.67;67.00;;;;;;;;5040751;28;8867;-77
2023/02/15 00:55:58;;;;;;;;;86.33;68.00;;;;;;;;5043893;28;8836;-77
2023/02/15 00:58:26;;;;;;;;;86.00;66.25;;;;;;;;5038961;28;8839;-77
2023/02/15 01:00:53;;;;;;;;;91.33;71.67;;;;;;;;5042664;28;8809;-78
2023/02/15 01:03:21;;;;;;;;;91.67;71.33;;;;;;;;5046556;28;8834;-77
2023/02/15 01:05:50;;;;;;;;;78.67;62.33;;;;;;;;5043774;28;8866;-78
2023/02/15 01:08:17;;;;;;;;;84.00;63.00;;;;;;;;5042276;28;8875;-78
2023/02/15 01:10:46;;;;;;;;;87.33;68.00;;;;;;;;5045803;28;8854;-78
2023/02/15 01:13:16;;;;;;;;;83.67;65.00;;;;;;;;5044682;28;8845;-77
2023/02/15 01:15:49;;;;;;;;;85.00;66.00;;;;;;;;5041957;28;8889;-77
2023/02/15 01:18:17;;;;;;;;;84.00;65.00;;;;;;;;5042735;28;8879;-77
2023/02/15 01:20:44;;;;;;;;;78.33;62.67;;;;;;;;5044788;28;8968;-77
2023/02/15 01:23:11;;;;;;;;;68.00;55.33;;;;;;;;5044211;28;8862;-78
2023/02/15 01:25:39;;;;;;;;;78.33;56.33;;;;;;;;5047852;28;8858;-77
2023/02/15 01:28:06;;;;;;;;;76.33;61.00;;;;;;;;5044449;28;8899;-77
2023/02/15 01:30:35;;;;;;;;;80.33;65.33;;;;;;;;5044451;28;8888;-81
2023/02/15 01:33:02;;;;;;;;;80.33;59.33;;;;;;;;5046918;28;8862;-77
2023/02/15 01:35:30;;;;;;;;;75.33;59.33;;;;;;;;5049869;28;8833;-78
2023/02/15 01:37:57;;;;;;;;;70.00;55.00;;;;;;;;5048424;28;8834;-78
2023/02/15 01:40:25;;;;;;;;;82.67;63.00;;;;;;;;5043764;28;8869;-78
2023/02/15 01:42:53;;;;;;;;;80.33;60.67;;;;;;;;5043553;28;8878;-78
2023/02/15 01:45:24;;;;;;;;;79.33;63.00;;;;;;;;5042618;28;8831;-78
2023/02/15 01:47:55;;;;;;;;;79.00;58.67;;;;;;;;5039162;28;8869;-78
2023/02/15 01:50:25;;;;;;;;;78.33;63.33;;;;;;;;5048612;28;8838;-78
2023/02/15 01:52:59;;;;;;;;;78.33;59.67;;;;;;;;5042459;28;8844;-78
2023/02/15 01:55:30;;;;;;;;;72.33;59.33;;;;;;;;5043036;28;8868;-78
2023/02/15 01:57:57;;;;;;;;;78.00;61.67;;;;;;;;5041325;28;8840;-78
2023/02/15 02:00:25;;;;;;;;;76.00;58.33;;;;;;;;5042038;28;8839;-78
2023/02/15 02:02:56;;;;;;;;;83.00;64.00;;;;;;;;5045708;28;8867;-77
2023/02/15 02:05:24;;;;;;;;;78.00;63.00;;;;;;;;5045446;28;8875;-78
2023/02/15 02:07:53;;;;;;;;;82.00;64.67;;;;;;;;5050401;28;8854;-78
2023/02/15 02:10:23;;;;;;;;;80.33;60.67;;;;;;;;5046696;28;8852;-78
2023/02/15 02:12:53;;;;;;;;;82.00;62.33;;;;;;;;5045404;28;8888;-77
2023/02/15 02:15:24;;;;;;;;;72.00;58.67;;;;;;;;5046417;28;9707;-78
2023/02/15 02:18:04;;;;;;;;;84.00;62.33;;;;;;;;5045636;28;8830;-83
2023/02/15 02:20:53;;;;;;;;;74.00;58.67;;;;;;;;5046832;28;8873;-78
2023/02/15 02:23:28;;;;;;;;;76.33;60.00;;;;;;;;5041789;28;9632;-81
2023/02/15 02:26:19;;;;;;;;;82.33;62.33;;;;;;;;5041994;28;8875;-78
2023/02/15 02:29:25;;;;;;;;;82.00;62.00;;;;;;;;5038648;28;8943;-78
2023/02/15 02:32:24;;;;;;;;;80.00;64.25;;;;;;;;5006589;28;8804;-78
2023/02/15 02:34:57;;;;;;;;;78.33;65.33;;;;;;;;5030274;28;9009;-78
2023/02/15 02:37:30;;;;;;;;;85.75;64.25;;;;;;;;5041764;28;8866;-78
2023/02/15 02:40:06;;;;;;;;;80.67;62.00;;;;;;;;5047585;28;9649;-78
2023/02/15 02:42:38;;;;;;;;;79.33;63.00;;;;;;;;5044701;28;8861;-78
2023/02/15 02:45:07;;;;;;;;;81.67;63.00;;;;;;;;5045590;28;8839;-77
2023/02/15 02:47:39;;;;;;;;;79.00;62.33;;;;;;;;5036496;28;8874;-78
2023/02/15 02:50:09;;;;;;;;;76.00;60.33;;;;;;;;5038629;28;8865;-78
2023/02/15 02:52:42;;;;;;;;;78.00;63.33;;;;;;;;5044470;28;8828;-78
2023/02/15 02:55:14;;;;;;;;;71.25;55.25;;;;;;;;5043451;28;8899;-78
2023/02/15 02:57:47;;;;;;;;;84.00;64.75;;;;;;;;5044807;28;8850;-78
2023/02/15 03:00:16;;;;;;;;;79.75;62.50;;;;;;;;5038308;28;8845;-78
2023/02/15 03:02:45;;;;;;;;;80.00;64.00;;;;;;;;5043684;28;8869;-78
2023/02/15 03:05:17;;;;;;;;;80.00;61.33;;;;;;;;5044437;28;8945;-78
2023/02/15 03:07:50;;;;;;;;;81.75;64.25;;;;;;;;5044315;28;8896;-78
2023/02/15 03:10:19;;;;;;;;;84.75;62.00;;;;;;;;5043218;28;8887;-77
2023/02/15 03:12:46;;;;;;;;;80.75;63.50;;;;;;;;5042656;28;8851;-78
2023/02/15 03:15:17;;;;;;;;;87.25;65.25;;;;;;;;5048629;28;8866;-78
2023/02/15 03:17:47;;;;;;;;;90.50;70.00;;;;;;;;5045359;28;8966;-77
2023/02/15 03:20:19;;;;;;;;;103.00;88.25;;;;;;;;5045105;28;9775;-77
2023/02/15 03:22:51;;;;;;;;;102.25;84.75;;;;;;;;5045068;28;8843;-77
2023/02/15 03:25:22;;;;;;;;;94.00;80.00;;;;;;;;5049922;28;8867;-78
2023/02/15 03:27:52;;;;;;;;;92.00;72.50;;;;;;;;5041407;28;8843;-77
2023/02/15 03:30:22;;;;;;;;;92.25;78.00;;;;;;;;5045883;28;8851;-77
2023/02/15 03:32:51;;;;;;;;;90.50;72.75;;;;;;;;5050464;28;8975;-77
2023/02/15 03:35:24;;;;;;;;;95.25;83.25;;;;;;;;5046292;28;8894;-77
2023/02/15 03:37:55;;;;;;;;;91.25;75.25;;;;;;;;5045164;28;8851;-78
2023/02/15 03:43:31;;;;;;;;;93.75;75.50;;;;;;;;5006732;28;8877;-78
2023/02/15 03:46:04;;;;;;;;;89.00;70.50;;;;;;;;5003770;28;8942;-78
2023/02/15 03:48:34;;;;;;;;;90.00;71.25;;;;;;;;5021992;28;8995;-78
2023/02/15 03:53:51;;;;;;;;;87.50;67.75;;;;;;;;5049911;28;8947;-78
2023/02/15 03:56:18;;;;;;;;;97.25;74.50;;;;;;;;5047578;28;8881;-78
2023/02/15 04:04:22;;;;;;;;;99.00;84.00;;;;;;;;5048830;28;9743;-78
2023/02/15 04:06:51;;;;;;;;;93.50;72.75;;;;;;;;5045675;28;8891;-79
2023/02/15 04:12:04;;;;;;;;;97.75;78.50;;;;;;;;5044627;28;8830;-79
2023/02/15 04:17:17;;;;;;;;;96.75;76.25;;;;;;;;5043507;28;8824;-77
2023/02/15 04:25:16;;;;;;;;;94.50;76.50;;;;;;;;5033304;28;9964;-79
2023/02/15 04:27:44;;;;;;;;;90.25;71.00;;;;;;;;5045800;28;8866;-78
2023/02/15 04:30:13;;;;;;;;;99.50;81.00;;;;;;;;5039262;28;8865;-78
2023/02/15 04:32:40;;;;;;;;;104.50;88.75;;;;;;;;5041996;28;8972;-78
2023/02/15 04:35:09;;;;;;;;;91.00;73.00;;;;;;;;5047424;28;8844;-78
2023/02/15 04:37:37;;;;;;;;;102.50;89.50;;;;;;;;5045730;28;8872;-78
2023/02/15 04:40:06;;;;;;;;;101.25;81.75;;;;;;;;5039833;28;8862;-78
2023/02/15 04:42:34;;;;;;;;;103.75;89.00;;;;;;;;5042508;28;8847;-78
2023/02/15 04:45:01;;;;;;;;;92.75;71.00;;;;;;;;5037110;28;8849;-78
2023/02/15 04:47:28;;;;;;;;;95.00;77.25;;;;;;;;5037609;28;8851;-78
2023/02/15 04:49:56;;;;;;;;;97.50;81.25;;;;;;;;5042079;28;8858;-80
2023/02/15 04:52:23;;;;;;;;;100.00;79.50;;;;;;;;5041003;28;8863;-78
2023/02/15 04:54:52;;;;;;;;;94.25;76.75;;;;;;;;5041747;28;8866;-78
2023/02/15 04:57:19;;;;;;;;;103.00;84.50;;;;;;;;5042513;28;8944;-77
2023/02/15 04:59:47;;;;;;;;;91.00;70.50;;;;;;;;5037041;28;8835;-77
2023/02/15 05:02:14;;;;;;;;;91.25;68.50;;;;;;;;5036074;28;9681;-77
2023/02/15 05:04:41;;;;;;;;;89.25;69.00;;;;;;;;5040277;28;8884;-78
2023/02/15 05:07:08;;;;;;;;;92.50;73.50;;;;;;;;5037963;28;8873;-78
2023/02/15 05:09:35;;;;;;;;;92.25;73.75;;;;;;;;5039046;28;8861;-78
2023/02/15 05:12:04;;;;;;;;;92.00;73.50;;;;;;;;5034329;28;8952;-78
2023/02/15 05:14:32;;;;;;;;;82.50;63.50;;;;;;;;5041814;28;8848;-78
2023/02/15 05:17:01;;;;;;;;;78.25;61.25;;;;;;;;5035926;28;8975;-78
2023/02/15 05:19:28;;;;;;;;;75.50;60.25;;;;;;;;5040569;28;8851;-78
2023/02/15 05:21:55;;;;;;;;;87.75;67.00;;;;;;;;5034689;28;8864;-78
2023/02/15 05:29:56;;;;;;;;;79.50;65.50;;;;;;;;5023711;28;9659;-78
2023/02/15 05:32:23;;;;;;;;;83.50;65.50;;;;;;;;5037980;28;8815;-79
2023/02/15 05:34:50;;;;;;;;;95.75;71.25;;;;;;;;5040318;28;8846;-79
2023/02/15 05:37:18;;;;;;;;;93.00;70.25;;;;;;;;5038427;28;8870;-78
2023/02/15 05:39:45;;;;;;;;;89.25;66.50;;;;;;;;5042220;28;8997;-78
2023/02/15 05:42:13;;;;;;;;;82.25;61.25;;;;;;;;5039394;28;8835;-78
2023/02/15 05:44:41;;;;;;;;;83.25;67.50;;;;;;;;5042209;28;8862;-78
2023/02/15 05:47:08;;;;;;;;;83.00;67.25;;;;;;;;5040602;28;8860;-78
2023/02/15 05:49:35;;;;;;;;;82.75;67.00;;;;;;;;5040226;28;8866;-78
2023/02/15 05:52:03;;;;;;;;;89.50;69.50;;;;;;;;5050280;28;8882;-78
2023/02/15 05:54:31;;;;;;;;;94.25;71.50;;;;;;;;5045880;28;8889;-78
2023/02/15 05:56:58;;;;;;;;;88.00;70.00;;;;;;;;5045795;28;8845;-78
2023/02/15 05:59:27;;;;;;;;;80.75;64.50;;;;;;;;5044329;28;8850;-77
2023/02/15 06:01:54;;;;;;;;;84.75;68.00;;;;;;;;5042794;28;8823;-78
2023/02/15 06:04:21;;;;;;;;;86.00;66.75;;;;;;;;5043354;28;8973;-78
2023/02/15 06:06:49;;;;;;;;;83.75;64.75;;;;;;;;5046599;28;8860;-77
2023/02/15 06:09:18;;;;;;;;;80.00;62.50;;;;;;;;5045990;28;9644;-78
2023/02/15 06:11:45;;;;;;;;;78.25;59.75;;;;;;;;5040530;28;8895;-78
2023/02/15 06:14:12;;;;;;;;;79.00;62.50;;;;;;;;5044316;28;8901;-78
2023/02/15 06:16:41;;;;;;;;;76.50;61.50;;;;;;;;5044456;28;8839;-78
2023/02/15 06:19:08;;;;;;;;;81.00;64.50;;;;;;;;5040536;28;9637;-78
2023/02/15 06:21:35;;;;;;;;;83.25;63.00;;;;;;;;5043635;28;8832;-78
2023/02/15 06:24:03;;;;;;;;;88.50;67.75;;;;;;;;5044058;28;8997;-77
2023/02/15 06:26:30;;;;;;;;;82.00;65.25;;;;;;;;5043230;28;8880;-80
2023/02/15 06:28:57;;;;;;;;;87.25;66.50;;;;;;;;5045054;28;8843;-78
2023/02/15 06:31:24;;;;;;;;;89.25;68.50;;;;;;;;5041578;28;8866;-79
2023/02/15 06:34:00;;;;;;;;;89.00;68.75;;;;;;;;5041921;28;8997;-84
2023/02/15 06:36:27;;;;;;;;;98.50;79.75;;;;;;;;5040254;28;9777;-77
2023/02/15 06:38:55;;;;;;;;;103.25;81.00;;;;;;;;5042198;28;8866;-79
2023/02/15 06:41:22;;;;;;;;;106.25;90.75;;;;;;;;5043896;28;9001;-79
2023/02/15 06:43:52;;;;;;;;;91.75;69.00;;;;;;;;5042737;28;8854;-78
2023/02/15 06:46:20;;;;;;;;;97.25;80.00;;;;;;;;5043131;28;8850;-79
2023/02/15 06:48:47;;;;;;;;;88.00;67.75;;;;;;;;5044584;28;9589;-78
2023/02/15 06:51:16;;;;;;;;;81.00;63.75;;;;;;;;5041692;28;8862;-78
2023/02/15 06:53:43;;;;;;;;;85.75;67.25;;;;;;;;5041931;28;9420;-78
2023/02/15 06:56:12;;;;;;;;;86.00;65.00;;;;;;;;5045827;28;8834;-78
2023/02/15 06:58:40;;;;;;;;;83.75;64.50;;;;;;;;5041367;28;8970;-79
2023/02/15 07:01:09;;;;;;;;;86.25;67.00;;;;;;;;5039355;28;9632;-77
2023/02/15 07:03:36;;;;;;;;;92.00;73.50;;;;;;;;5038669;28;8877;-78
2023/02/15 07:06:08;;;;;;;;;86.75;65.25;;;;;;;;5040168;28;9631;-78
2023/02/15 07:08:37;;;;;;;;;92.50;73.00;;;;;;;;5045027;28;8920;-78
2023/02/15 07:13:52;;;;;;;;;93.25;71.00;;;;;;;;5043619;28;8850;-81
2023/02/15 07:16:19;;;;;;;;;92.25;73.00;;;;;;;;5043104;28;8856;-78
2023/02/15 07:18:46;;;;;;;;;88.00;67.00;;;;;;;;5043239;28;8832;-78
2023/02/15 07:21:14;;;;;;;;;91.50;67.75;;;;;;;;5047597;28;8862;-78
2023/02/15 07:23:42;;;;;;;;;88.00;70.50;;;;;;;;5040093;28;9045;-78
2023/02/15 07:26:10;;;;;;;;;88.50;70.50;;;;;;;;5039928;28;9733;-79
2023/02/15 07:28:37;;;;;;;;;91.25;69.50;;;;;;;;5046132;28;8839;-79
2023/02/15 07:31:05;;;;;;;;;91.75;68.50;;;;;;;;5043318;28;9587;-78
2023/02/15 07:33:33;;;;;;;;;89.00;69.25;;;;;;;;5045646;28;8994;-78
2023/02/15 07:36:01;;;;;;;;;87.75;70.25;;;;;;;;5038655;28;8872;-78
2023/02/15 07:38:31;;;;;;;;;88.00;69.50;;;;;;;;5041273;28;8809;-74
2023/02/15 07:41:01;;;;;;;;;84.25;67.00;;;;;;;;5041802;28;8993;-74
2023/02/15 07:43:29;;;;;;;;;84.25;66.75;;;;;;;;5040790;28;8885;-70
2023/02/15 07:48:41;;;;;;;;;95.50;69.25;;;;;;;;5042679;28;9392;-71
2023/02/15 07:51:10;;;;;;;;;86.50;69.00;;;;;;;;5044355;28;9100;-70
2023/02/15 07:53:38;;;;;;;;;82.50;65.75;;;;;;;;5042757;28;8864;-70
2023/02/15 07:56:08;;;;;;;;;90.00;68.25;;;;;;;;5036998;28;8935;-70
2023/02/15 07:58:55;;;;;;;;;84.00;66.75;;;;;;;;5044239;28;8837;-71
2023/02/15 08:01:24;;;;;;;;;81.00;64.25;;;;;;;;5039422;28;8779;-71
2023/02/15 08:03:52;;;;;;;;;81.75;64.00;;;;;;;;5037463;28;8846;-70
2023/02/15 08:06:19;;;;;;;;;81.75;62.50;;;;;;;;5037877;28;8842;-70
2023/02/15 08:08:47;;;;;;;;;84.25;66.50;;;;;;;;5040109;28;8846;-70
2023/02/15 08:11:28;;;;;;;;;86.50;65.00;;;;;;;;5039064;28;8843;-70
2023/02/15 08:13:59;;;;;;;;;79.25;63.00;;;;;;;;5037865;28;8973;-70
2023/02/15 08:16:28;;;;;;;;;89.00;70.50;;;;;;;;5039164;28;8990;-73
2023/02/15 08:18:56;;;;;;;;;87.00;67.75;;;;;;;;5041439;28;9371;-68
2023/02/15 08:21:23;;;;;;;;;86.75;67.00;;;;;;;;5038446;28;8985;-68
2023/02/15 08:23:51;;;;;;;;;86.00;67.50;;;;;;;;5041187;28;9280;-69
2023/02/15 08:26:19;;;;;;;;;97.50;80.00;;;;;;;;5041734;28;8849;-70
2023/02/15 08:28:48;;;;;;;;;98.75;80.00;;;;;;;;5041854;28;8884;-69
2023/02/15 08:31:16;;;;;;;;;96.75;75.25;;;;;;;;5041727;28;8823;-75
2023/02/15 08:33:45;;;;;;;;;91.50;73.25;;;;;;;;5043110;28;9001;-73
2023/02/15 08:36:14;;;;;;;;;103.25;86.50;;;;;;;;5040387;28;8985;-71
2023/02/15 08:38:42;;;;;;;;;108.75;94.50;;;;;;;;5044770;28;8871;-73
2023/02/15 08:41:18;;;;;;;;;97.75;74.75;;;;;;;;5048992;28;8865;-74
2023/02/15 08:43:49;;;;;;;;;102.25;80.75;;;;;;;;5045040;28;8846;-73
2023/02/15 08:46:20;;;;;;;;;99.50;83.00;;;;;;;;5040071;28;8961;-74
2023/02/15 08:48:48;;;;;;;;;83.50;64.75;;;;;;;;5048041;28;8959;-73
2023/02/15 08:51:17;;;;;;;;;94.00;71.33;;;;;;;;5046768;28;8838;-71
2023/02/15 08:53:45;;;;;;;;;90.00;68.25;;;;;;;;5046153;28;8955;-72
2023/02/15 08:56:15;;;;;;;;;86.67;67.33;;;;;;;;5047917;28;9158;-74
2023/02/15 08:58:43;;;;;;;;;90.75;71.75;;;;;;;;5034405;28;9739;-73
2023/02/15 09:01:17;;;;;;;;;82.00;64.67;;;;;;;;5023954;28;8806;-71
2023/02/15 09:03:45;;;;;;;;;96.67;70.33;;;;;;;;5011737;28;8885;-73
2023/02/15 09:06:13;;;;;;;;;93.33;70.00;;;;;;;;5024257;28;8882;-72
2023/02/15 09:08:40;;;;;;;;;94.00;71.33;;;;;;;;5031031;28;8911;-73
2023/02/15 09:11:10;;;;;;;;;86.75;67.75;;;;;;;;5027908;28;8848;-73
2023/02/15 09:13:38;;;;;;;;;92.50;69.75;;;;;;;;5029937;28;8846;-74
2023/02/15 09:16:06;;;;;;;;;94.25;74.50;;;;;;;;5027796;28;9013;-73
2023/02/15 09:18:37;;;;;;;;;82.67;63.33;;;;;;;;5026205;28;8850;-72
2023/02/15 09:21:09;;;;;;;;;92.33;71.33;;;;;;;;5028736;28;8900;-71
2023/02/15 09:23:36;;;;;;;;;85.33;68.67;;;;;;;;5031332;28;9602;-72
2023/02/15 09:26:05;;;;;;;;;88.33;68.67;;;;;;;;5033652;28;8977;-72
2023/02/15 09:28:33;;;;;;;;;85.00;67.67;;;;;;;;5033976;28;8871;-72
2023/02/15 09:31:10;;;;;;;;;86.67;67.33;;;;;;;;5027490;28;8779;-71
2023/02/15 09:33:40;;;;;;;;;87.67;70.33;;;;;;;;5024760;28;8820;-71
2023/02/15 09:36:15;;;;;;;;;89.33;71.33;;;;;;;;5018732;28;8955;-73
2023/02/15 09:38:43;;;;;;;;;96.33;80.33;;;;;;;;5023202;28;8879;-74
2023/02/15 09:41:23;;;;;;;;;87.67;66.67;;;;;;;;5028787;28;8844;-74
2023/02/15 09:44:00;;;;;;;;;86.67;68.67;;;;;;;;5019576;28;8862;-76
2023/02/15 09:46:39;;;;;;;;;78.33;62.00;;;;;;;;5030485;28;9685;-74
2023/02/15 09:49:13;;;;;;;;;84.67;67.00;;;;;;;;5031465;28;8845;-75
2023/02/15 09:51:58;;;;;;;;;84.00;63.00;;;;;;;;5023742;28;8850;-73
2023/02/15 09:54:39;;;;;;;;;85.33;65.67;;;;;;;;5022143;28;8951;-73
2023/02/15 09:57:11;;;;;;;;;80.67;62.67;;;;;;;;5002724;28;8852;-75
2023/02/15 09:59:45;;;;;;;;;85.00;65.00;;;;;;;;5032255;28;8858;-74
2023/02/15 10:02:25;;;;;;;;;80.33;62.00;;;;;;;;5042582;28;8791;-75
2023/02/15 10:05:06;;;;;;;;;73.33;59.00;;;;;;;;5045263;28;8842;-76
2023/02/15 10:07:49;;;;;;;;;84.67;65.67;;;;;;;;5043220;28;8981;-74
2023/02/15 10:10:25;;;;;;;;;80.00;63.33;;;;;;;;5039933;28;8993;-75
2023/02/15 10:13:11;;;;;;;;;70.67;57.33;;;;;;;;5039618;28;11573;-74
2023/02/15 10:15:52;;;;;;;;;76.00;61.00;;;;;;;;5037125;28;11572;-75
2023/02/15 10:18:34;;;;;;;;;79.00;64.00;;;;;;;;5042290;28;11616;-74
2023/02/15 10:21:11;;;;;;;;;74.00;58.50;;;;;;;;5044405;28;11555;-74
2023/02/15 10:23:54;;;;;;;;;77.25;62.25;;;;;;;;5034380;28;11610;-75
2023/02/15 10:26:22;;;;;;;;;82.25;61.50;;;;;;;;5038554;28;11572;-73
2023/02/15 10:28:51;;;;;;;;;79.75;63.50;;;;;;;;5041903;28;11639;-74
2023/02/15 10:31:25;;;;;;;;;75.00;59.75;;;;;;;;5041208;28;11435;-73
2023/02/15 10:34:12;;;;;;;;;78.75;61.50;;;;;;;;5034305;28;12429;-72
2023/02/15 10:41:13;;;;;;;;;77.50;64.00;;;;;;;;5094955;22;1376665;-64
2023/02/15 10:44:00;;;;;;;;;74.50;61.00;;;;;;;;5091424;22;8895;-64
2023/02/15 10:46:46;;;;;;;;;80.00;61.25;;;;;;;;5074070;22;11756;-72
2023/02/15 10:49:27;;;;;;;;;80.00;62.25;;;;;;;;5076817;28;11593;-72
2023/02/15 10:52:06;;;;;;;;;81.25;63.00;;;;;;;;5079465;28;11634;-70
2023/02/15 10:54:39;;;;;;;;;76.25;60.75;;;;;;;;5079181;28;13359;-73
2023/02/15 10:57:16;;;;;;;;;78.75;60.75;;;;;;;;5054307;28;11716;-74
2023/02/15 11:00:00;;;;;;;;;74.25;60.75;;;;;;;;5077647;28;11739;-74
2023/02/15 11:02:37;;;;;;;;;79.00;63.50;;;;;;;;5046438;28;11575;-72
2023/02/15 11:05:17;;;;;;;;;79.50;62.50;;;;;;;;5039004;28;11641;-75
2023/02/15 11:07:47;;;;;;;;;73.00;58.50;;;;;;;;5042156;28;11683;-73
2023/02/15 11:10:24;;;;;;;;;76.00;60.25;;;;;;;;5047122;28;11634;-73
2023/02/15 11:12:53;;;;;;;;;79.00;60.25;;;;;;;;5036621;28;11639;-73
2023/02/15 11:15:27;;;;;;;;;74.00;58.50;;;;;;;;5021930;28;11668;-73
2023/02/15 11:17:58;;;;;;;;;77.00;61.00;;;;;;;;5017731;28;11653;-74
2023/02/15 11:20:29;;;;;;;;;79.00;62.75;;;;;;;;5036035;28;11714;-73
2023/02/15 11:22:57;;;;;;;;;78.00;59.75;;;;;;;;5021338;28;12008;-73
2023/02/15 11:25:26;;;;;;;;;75.75;60.50;;;;;;;;5034407;28;12070;-73
2023/02/15 11:27:56;;;;;;;;;77.25;61.00;;;;;;;;5033861;28;11628;-73
2023/02/15 11:30:25;;;;;;;;;80.00;63.00;;;;;;;;5016829;28;11622;-73
2023/02/15 11:32:55;;;;;;;;;77.50;60.00;;;;;;;;5039113;28;11669;-74
2023/02/15 11:35:28;;;;;;;;;78.50;61.00;;;;;;;;5038043;28;12532;-73
2023/02/15 11:38:00;;;;;;;;;77.75;63.00;;;;;;;;5036143;28;11699;-73
2023/02/15 11:40:30;;;;;;;;;84.25;66.25;;;;;;;;5039199;28;11656;-72
2023/02/15 11:43:04;;;;;;;;;79.00;59.25;;;;;;;;5039725;28;11673;-72
2023/02/15 11:45:34;;;;;;;;;71.75;56.00;;;;;;;;5014755;28;11648;-74
2023/02/15 11:48:02;;;;;;;;;75.25;60.50;;;;;;;;5009995;28;11596;-71
2023/02/15 11:50:32;;;;;;;;;72.75;58.25;;;;;;;;5005082;28;11686;-72
2023/02/15 11:53:03;;;;;;;;;75.25;58.25;;;;;;;;5005101;28;11612;-73
2023/02/15 11:55:30;;;;;;;;;75.25;59.00;;;;;;;;5005313;28;11639;-72
2023/02/15 11:58:04;;;;;;;;;77.50;59.50;;;;;;;;5004522;28;11637;-71
2023/02/15 12:00:36;;;;;;;;;74.75;59.25;;;;;;;;5005673;28;11513;-72
2023/02/15 12:03:13;;;;;;;;;76.00;59.25;;;;;;;;4999054;28;11553;-72
2023/02/15 12:05:43;;;;;;;;;75.75;61.25;;;;;;;;5001236;28;11593;-72
2023/02/15 12:08:17;;;;;;;;;71.00;56.75;;;;;;;;5002648;28;11624;-72
2023/02/15 12:11:05;;;;;;;;;78.75;61.75;;;;;;;;5004856;28;11545;-73
2023/02/15 12:13:34;;;;;;;;;84.50;65.00;;;;;;;;4998959;28;11579;-72
2023/02/15 12:16:07;;;;;;;;;73.25;56.75;;;;;;;;5006173;28;11558;-72
2023/02/15 12:18:38;;;;;;;;;72.50;57.00;;;;;;;;5004092;28;11553;-73
2023/02/15 12:21:09;;;;;;;;;75.75;60.00;;;;;;;;4997809;28;11661;-73
2023/02/15 12:23:43;;;;;;;;;73.25;57.75;;;;;;;;4999027;28;11769;-74
2023/02/15 12:26:11;;;;;;;;;77.00;61.50;;;;;;;;4996893;28;11272;-73
2023/02/15 12:28:42;;;;;;;;;74.00;56.25;;;;;;;;4999568;28;11300;-73
2023/02/15 12:31:20;;;;;;;;;72.25;57.25;;;;;;;;5003402;28;11158;-74
2023/02/15 12:33:47;;;;;;;;;72.00;59.50;;;;;;;;5004427;28;11254;-74
2023/02/15 12:36:19;;;;;;;;;70.25;57.50;;;;;;;;4999066;28;11230;-73
2023/02/15 12:39:05;;;;;;;;;71.25;57.50;;;;;;;;4998988;28;11059;-73
2023/02/15 12:41:32;;;;;;;;;70.50;55.75;;;;;;;;5004443;28;12382;-72
2023/02/15 12:44:19;;;;;;;;;67.25;55.00;;;;;;;;5000778;28;11008;-71
2023/02/15 12:46:58;;;;;;;;;72.00;56.75;;;;;;;;5018832;28;11053;-71
2023/02/15 12:49:25;;;;;;;;;62.25;52.00;;;;;;;;5002620;28;11245;-71
2023/02/15 12:51:54;;;;;;;;;70.25;56.00;;;;;;;;5022907;28;10774;-71
2023/02/15 12:54:32;;;;;;;;;68.25;55.50;;;;;;;;5021324;28;10817;-71
2023/02/15 12:57:00;;;;;;;;;63.50;53.25;;;;;;;;5014560;28;11494;-71
2023/02/15 12:59:29;;;;;;;;;71.25;56.25;;;;;;;;5013996;28;10748;-71
2023/02/15 13:01:57;;;;;;;;;70.75;55.00;;;;;;;;5013782;28;10798;-71
2023/02/15 13:04:26;;;;;;;;;68.00;54.25;;;;;;;;5019653;28;11218;-71
2023/02/15 13:06:56;;;;;;;;;74.00;58.25;;;;;;;;5023853;28;10906;-72
2023/02/15 13:09:37;;;;;;;;;71.00;56.75;;;;;;;;5019244;28;11937;-72
2023/02/15 13:12:21;;;;;;;;;70.50;56.00;;;;;;;;5019337;28;10739;-72
2023/02/15 13:14:52;;;;;;;;;71.25;55.50;;;;;;;;5017320;28;10579;-71
2023/02/15 13:17:24;;;;;;;;;72.00;57.00;;;;;;;;5021838;28;10628;-72
2023/02/15 13:19:54;;;;;;;;;69.25;54.50;;;;;;;;5020246;28;10836;-72
2023/02/15 13:22:26;;;;;;;;;69.00;54.25;;;;;;;;5016373;28;10710;-71
2023/02/15 13:24:58;;;;;;;;;76.00;58.50;;;;;;;;5024580;28;10748;-71
2023/02/15 13:27:30;;;;;;;;;72.25;55.25;;;;;;;;5023635;28;10735;-71
2023/02/15 13:30:01;;;;;;;;;75.25;58.75;;;;;;;;5020734;28;10754;-71
2023/02/15 13:32:32;;;;;;;;;69.00;56.00;;;;;;;;5043297;28;10779;-72
2023/02/15 13:35:01;;;;;;;;;65.75;54.50;;;;;;;;5038158;28;10774;-72
2023/02/15 13:37:44;;;;;;;;;74.50;58.00;;;;;;;;5039370;28;10711;-72
2023/02/15 13:40:17;;;;;;;;;69.50;56.00;;;;;;;;5016198;28;10617;-72
2023/02/15 13:42:49;;;;;;;;;69.25;55.00;;;;;;;;5041025;28;10714;-72
2023/02/15 13:45:33;;;;;;;;;63.50;53.00;;;;;;;;5039826;28;10600;-72
2023/02/15 13:48:05;;;;;;;;;69.50;54.75;;;;;;;;5018181;28;10448;-72
2023/02/15 13:50:56;;;;;;;;;62.75;51.50;;;;;;;;5044991;28;10814;-72
2023/02/15 13:53:37;;;;;;;;;69.25;54.75;;;;;;;;5036950;28;11876;-72
2023/02/15 13:56:11;;;;;;;;;71.00;55.50;;;;;;;;5020331;28;10463;-72
2023/02/15 13:59:14;;;;;;;;;65.75;50.50;;;;;;;;5039491;28;10340;-76
2023/02/15 14:01:46;;;;;;;;;68.50;53.25;;;;;;;;5025848;28;10270;-72
2023/02/15 14:04:41;;;;;;;;;68.00;55.25;;;;;;;;5013075;28;10398;-72
2023/02/15 14:07:19;;;;;;;;;68.00;56.00;;;;;;;;5044122;28;10461;-72
2023/02/15 14:09:57;;;;;;;;;69.25;56.00;;;;;;;;5045744;28;10506;-71
2023/02/15 14:12:40;;;;;;;;;73.75;57.75;;;;;;;;5020820;28;11486;-71
2023/02/15 14:15:20;;;;;;;;;60.50;51.00;;;;;;;;5040121;28;10659;-72
2023/02/15 14:17:57;;;;;;;;;74.75;56.25;;;;;;;;5019493;28;10660;-72
2023/02/15 14:20:30;;;;;;;;;73.25;58.25;;;;;;;;5037668;28;11349;-71
2023/02/15 14:23:05;;;;;;;;;69.00;56.00;;;;;;;;5038990;28;10946;-71
2023/02/15 14:25:38;;;;;;;;;74.25;61.25;;;;;;;;5036849;28;10683;-71
2023/02/15 14:28:10;;;;;;;;;73.75;59.00;;;;;;;;5030362;28;11818;-69
2023/02/15 14:30:39;;;;;;;;;68.00;54.25;;;;;;;;5015838;28;10882;-71
2023/02/15 14:33:09;;;;;;;;;75.75;60.25;;;;;;;;5040407;28;11818;-70
2023/02/15 14:35:38;;;;;;;;;78.25;65.50;;;;;;;;5036758;28;11166;-70
2023/02/15 14:38:13;;;;;;;;;73.75;59.25;;;;;;;;5037583;28;11516;-71
2023/02/15 14:41:03;;;;;;;;;71.75;57.75;;;;;;;;5016990;28;10914;-71
2023/02/15 14:43:46;;;;;;;;;176.00;149.33;;;;;;;;5043771;28;10975;-70
2023/02/15 14:46:21;;;;;;;;;81.75;72.75;;;;;;;;5038201;28;8884;-70
2023/02/15 14:48:52;;;;;;;;;61.00;50.50;;;;;;;;5043911;28;11512;-71
2023/02/15 14:51:53;;;;;;;;;79.50;67.75;;;;;;;;5040259;28;11522;-71
2023/02/15 14:54:54;;;;;;;;;75.75;65.00;;;;;;;;5032112;28;11514;-71
2023/02/15 14:57:30;;;;;;;;;77.00;61.50;;;;;;;;5044491;28;11502;-70
2023/02/15 14:59:59;;;;;;;;;72.00;57.00;;;;;;;;5035739;28;11506;-70
2023/02/15 15:02:28;;;;;;;;;77.25;64.50;;;;;;;;5042154;28;11585;-70
2023/02/15 15:05:16;;;;;;;;;74.00;58.25;;;;;;;;5036357;28;11521;-71
2023/02/15 15:07:46;;;;;;;;;79.75;64.00;;;;;;;;5035755;28;11536;-72
2023/02/15 15:10:41;;;;;;;;;75.00;59.75;;;;;;;;5022994;28;11523;-71
2023/02/15 15:13:39;;;;;;;;;72.75;58.50;;;;;;;;5037754;28;11493;-71
2023/02/15 15:16:52;;;;;;;;;80.50;67.50;;;;;;;;5002704;28;11514;-72
2023/02/15 15:20:07;;;;;;;;;78.00;67.75;;;;;;;;5016543;28;11531;-73
2023/02/15 15:22:37;;;;;;;;;79.50;66.75;;;;;;;;5036187;28;12297;-73
2023/02/15 15:25:10;;;;;;;;;76.75;63.25;;;;;;;;5028961;28;11515;-71
2023/02/15 15:27:55;;;;;;;;;72.25;57.75;;;;;;;;5043840;28;12269;-72
2023/02/15 15:30:59;;;;;;;;;75.75;58.50;;;;;;;;5040422;28;11503;-73
2023/02/15 15:34:00;;;;;;;;;70.50;55.50;;;;;;;;5044696;28;11518;-72